Time;durP1;ratioP1;P1;durP2;ratioP2;P2;SDS_P1;SDS_P2;PMS_P1;PMS_P2;Temp;Humidity;BMP_temperature;BMP_pressure;BME280_temperature;BME280_humidity;BME280_pressure;Samples;Min_cycle;Max_cycle;Signal;HPM_P1;HPM_P2
2021/07/19 00:00:58;;;;;;;9.70;4.07;;;;;;;-145.18;100.00;60484.78;5082329;28;20043;-68
2021/07/19 00:03:23;;;;;;;10.23;4.07;;;;;;;-145.18;100.00;60484.78;5082131;28;20043;-67
2021/07/19 00:05:52;;;;;;;10.33;4.33;;;;;;;-145.18;100.00;60484.78;5084963;28;20379;-70
2021/07/19 00:08:17;;;;;;;13.40;4.93;;;;;;;-145.18;100.00;60484.78;5086359;28;20352;-68
2021/07/19 00:10:43;;;;;;;13.37;4.73;;;;;;;-145.18;100.00;60484.78;5085680;28;20035;-67
2021/07/19 00:13:11;;;;;;;9.73;4.53;;;;;;;-145.18;100.00;60484.78;5098504;28;20031;-70
2021/07/19 00:15:36;;;;;;;11.83;4.27;;;;;;;-145.18;100.00;60484.78;5085278;28;20594;-70
2021/07/19 00:18:02;;;;;;;13.87;4.40;;;;;;;-145.18;100.00;60484.78;5097240;28;20027;-70
2021/07/19 00:20:28;;;;;;;13.23;4.63;;;;;;;-145.18;100.00;60484.78;5085816;28;20043;-70
2021/07/19 00:22:53;;;;;;;10.93;4.20;;;;;;;-145.18;100.00;60484.78;5085290;28;20058;-70
2021/07/19 00:25:19;;;;;;;9.73;4.20;;;;;;;-145.18;100.00;60484.78;5085556;28;20020;-67
2021/07/19 00:27:46;;;;;;;13.17;4.13;;;;;;;-145.18;100.00;60484.78;5085492;28;20411;-67
2021/07/19 00:30:14;;;;;;;10.93;3.90;;;;;;;-145.18;100.00;60484.78;5089471;28;20047;-67
2021/07/19 00:32:41;;;;;;;11.07;3.50;;;;;;;-145.18;100.00;60484.78;5085111;28;20350;-67
2021/07/19 00:35:07;;;;;;;13.50;3.73;;;;;;;-145.18;100.00;60484.78;5085381;28;20032;-67
2021/07/19 00:37:34;;;;;;;12.37;3.50;;;;;;;-145.18;100.00;60484.78;5085458;28;20036;-67
2021/07/19 00:40:00;;;;;;;14.07;4.27;;;;;;;-145.18;100.00;60484.78;5072852;28;20032;-67
2021/07/19 00:42:26;;;;;;;12.07;4.20;;;;;;;-145.18;100.00;60484.78;5083881;28;20046;-67
2021/07/19 00:44:52;;;;;;;7.83;3.50;;;;;;;-145.18;100.00;60484.78;5085522;28;20486;-67
2021/07/19 00:47:17;;;;;;;6.90;3.27;;;;;;;-145.18;100.00;60484.78;5084862;28;20032;-67
2021/07/19 00:49:44;;;;;;;11.67;3.87;;;;;;;-145.18;100.00;60484.78;5085032;28;20028;-67
2021/07/19 00:52:10;;;;;;;9.93;3.17;;;;;;;-145.18;100.00;60484.78;5085341;28;20027;-67
2021/07/19 00:54:38;;;;;;;10.43;3.40;;;;;;;-145.18;100.00;60484.78;5085019;28;20089;-67
2021/07/19 00:57:05;;;;;;;8.40;3.30;;;;;;;-145.18;100.00;60484.78;5087324;28;20071;-67
2021/07/19 00:59:34;;;;;;;12.33;4.50;;;;;;;-145.18;100.00;60484.78;5084686;28;20077;-67
2021/07/19 01:02:02;;;;;;;11.83;3.83;;;;;;;-145.18;100.00;60484.78;5083423;28;20024;-68
2021/07/19 01:04:30;;;;;;;12.33;3.30;;;;;;;-145.18;100.00;60484.78;5084305;28;20412;-68
2021/07/19 01:07:00;;;;;;;12.77;3.10;;;;;;;-145.18;100.00;60484.78;5083838;28;20027;-69
2021/07/19 01:09:28;;;;;;;11.10;3.70;;;;;;;-145.18;100.00;60484.78;5076631;28;20035;-69
2021/07/19 01:11:56;;;;;;;11.83;3.60;;;;;;;-145.18;100.00;60484.78;5088686;28;20027;-69
2021/07/19 01:14:22;;;;;;;9.00;3.13;;;;;;;-145.18;100.00;60484.78;5092769;28;20075;-69
2021/07/19 01:16:48;;;;;;;8.93;3.50;;;;;;;-145.18;100.00;60484.78;5087708;28;20063;-69
2021/07/19 01:19:14;;;;;;;9.77;3.20;;;;;;;-145.18;100.00;60484.78;5097926;28;20035;-69
2021/07/19 01:22:29;;;;;;;8.70;2.80;;;;;;;-145.18;100.00;60484.78;5084478;28;20625;-69
2021/07/19 01:25:40;;;;;;;11.77;3.30;;;;;;;-145.18;100.00;60484.78;5040981;28;20053;-69
2021/07/19 01:28:36;;;;;;;11.57;3.50;;;;;;;-145.18;100.00;60484.78;5050180;28;20102;-69
2021/07/19 01:31:08;;;;;;;11.13;3.23;;;;;;;-145.18;100.00;60484.78;5039127;28;20545;-69
2021/07/19 01:33:35;;;;;;;;;;;;;;;-145.18;100.00;60484.78;5041587;28;20033;-69
2021/07/19 01:36:02;;;;;;;10.10;3.50;;;;;;;-145.18;100.00;60484.78;5040654;28;20000;-69
2021/07/19 01:38:28;;;;;;;14.63;3.87;;;;;;;-145.18;100.00;60484.78;5041237;28;20071;-69
2021/07/19 01:40:55;;;;;;;9.50;3.10;;;;;;;-145.18;100.00;60484.78;5040978;28;20059;-69
2021/07/19 01:43:22;;;;;;;8.30;3.43;;;;;;;-145.18;100.00;60484.78;5047093;28;20530;-69
2021/07/19 01:45:48;;;;;;;12.43;3.97;;;;;;;-145.18;100.00;60484.78;5040903;28;20689;-68
2021/07/19 01:48:14;;;;;;;11.93;3.27;;;;;;;-145.18;100.00;60484.78;5040375;28;20048;-69
2021/07/19 01:50:41;;;;;;;9.27;3.53;;;;;;;-145.18;100.00;60484.78;5040810;28;20036;-69
2021/07/19 01:53:07;;;;;;;10.07;3.70;;;;;;;-145.18;100.00;60484.78;5040612;28;20671;-69
2021/07/19 01:55:34;;;;;;;10.77;3.60;;;;;;;-145.18;100.00;60484.78;5040294;28;20041;-69
2021/07/19 01:58:00;;;;;;;7.97;3.03;;;;;;;-145.18;100.00;60484.78;5040798;28;20457;-69
2021/07/19 02:00:26;;;;;;;9.27;3.17;;;;;;;-145.18;100.00;60484.78;5039896;28;20105;-69
2021/07/19 02:02:52;;;;;;;10.13;3.87;;;;;;;-145.18;100.00;60484.78;5083371;28;20038;-69
2021/07/19 02:05:20;;;;;;;8.70;3.50;;;;;;;-145.18;100.00;60484.78;5079863;28;20023;-69
2021/07/19 02:07:49;;;;;;;9.93;3.23;;;;;;;-145.18;100.00;60484.78;5092700;28;20051;-69
2021/07/19 02:10:16;;;;;;;9.20;3.63;;;;;;;-145.18;100.00;60484.78;5083288;28;20038;-69
2021/07/19 02:12:43;;;;;;;11.10;3.80;;;;;;;-145.18;100.00;60484.78;5085658;28;20107;-69
2021/07/19 02:15:19;;;;;;;9.27;3.83;;;;;;;-145.18;100.00;60484.78;5083343;28;20040;-69
2021/07/19 02:17:49;;;;;;;10.00;3.80;;;;;;;-145.18;100.00;60484.78;5094128;28;20093;-69
2021/07/19 02:20:15;;;;;;;13.60;4.37;;;;;;;-145.18;100.00;60484.78;5083954;28;20060;-69
2021/07/19 02:22:45;;;;;;;11.70;3.40;;;;;;;-145.18;100.00;60484.78;5094560;28;20107;-72
2021/07/19 02:25:13;;;;;;;8.87;3.33;;;;;;;-145.18;100.00;60484.78;5067487;28;20036;-72
2021/07/19 02:27:42;;;;;;;13.87;4.13;;;;;;;-145.18;100.00;60484.78;5087930;28;20115;-72
2021/07/19 02:30:09;;;;;;;16.57;3.77;;;;;;;-145.18;100.00;60484.78;5082918;28;20028;-72
2021/07/19 02:32:39;;;;;;;9.63;3.57;;;;;;;-145.18;100.00;60484.78;5092168;28;20096;-72
2021/07/19 02:35:06;;;;;;;11.10;4.33;;;;;;;-145.18;100.00;60484.78;5082573;28;20123;-72
2021/07/19 02:37:53;;;;;;;8.37;3.60;;;;;;;-145.18;100.00;60484.78;5089986;28;20059;-72
2021/07/19 02:40:25;;;;;;;10.57;3.33;;;;;;;-145.18;100.00;60484.78;5082220;28;20036;-72
2021/07/19 02:43:04;;;;;;;11.13;3.50;;;;;;;-145.18;100.00;60484.78;5082851;28;20042;-72
2021/07/19 02:45:35;;;;;;;9.37;3.33;;;;;;;-145.18;100.00;60484.78;5083689;28;20097;-69
2021/07/19 02:48:02;;;;;;;12.23;3.23;;;;;;;-145.18;100.00;60484.78;5084701;28;20046;-69
2021/07/19 02:50:29;;;;;;;13.63;3.60;;;;;;;-145.18;100.00;60484.78;5082445;28;20114;-69
2021/07/19 02:53:06;;;;;;;9.33;3.40;;;;;;;-145.18;100.00;60484.78;5082818;28;20035;-69
2021/07/19 02:55:32;;;;;;;12.30;3.73;;;;;;;-145.18;100.00;60484.78;5082323;28;20024;-69
2021/07/19 02:58:03;;;;;;;10.97;3.07;;;;;;;-145.18;100.00;60484.78;5085218;28;20029;-69
2021/07/19 03:00:29;;;;;;;12.23;3.73;;;;;;;-145.18;100.00;60484.78;5080382;28;20385;-69
2021/07/19 03:02:58;;;;;;;9.07;3.37;;;;;;;-145.18;100.00;60484.78;5082475;28;20066;-69
2021/07/19 03:05:28;;;;;;;10.83;3.70;;;;;;;-145.18;100.00;60484.78;5082346;28;20496;-69
2021/07/19 03:07:56;;;;;;;11.33;3.47;;;;;;;-145.18;100.00;60484.78;5095086;28;20024;-69
2021/07/19 03:10:24;;;;;;;12.43;3.10;;;;;;;-145.18;100.00;60484.78;5083415;28;20051;-69
2021/07/19 03:12:54;;;;;;;10.60;3.37;;;;;;;-145.18;100.00;60484.78;5094491;28;20027;-69
2021/07/19 03:15:24;;;;;;;10.77;3.90;;;;;;;-145.18;100.00;60484.78;5081611;28;20063;-69
2021/07/19 03:17:51;;;;;;;11.57;2.93;;;;;;;-145.18;100.00;60484.78;5094521;28;20029;-69
2021/07/19 03:20:18;;;;;;;9.90;3.43;;;;;;;-145.18;100.00;60484.78;5082338;28;20035;-69
2021/07/19 03:22:44;;;;;;;8.70;3.23;;;;;;;-145.18;100.00;60484.78;5082653;28;20050;-69
2021/07/19 03:25:11;;;;;;;10.40;3.83;;;;;;;-145.18;100.00;60484.78;5082089;28;20024;-69
2021/07/19 03:27:37;;;;;;;11.83;3.93;;;;;;;-145.18;100.00;60484.78;5082904;28;20074;-69
2021/07/19 03:30:06;;;;;;;8.57;3.17;;;;;;;-145.18;100.00;60484.78;5082165;28;20055;-71
2021/07/19 03:32:33;;;;;;;9.23;3.93;;;;;;;-145.18;100.00;60484.78;5082242;28;20047;-69
2021/07/19 03:34:59;;;;;;;12.83;3.83;;;;;;;-145.18;100.00;60484.78;5082189;28;20016;-69
2021/07/19 03:37:25;;;;;;;12.43;3.57;;;;;;;-145.18;100.00;60484.78;5088957;28;20034;-69
2021/07/19 03:39:53;;;;;;;12.43;3.93;;;;;;;-145.18;100.00;60484.78;5084841;28;20024;-69
2021/07/19 03:42:19;;;;;;;11.27;3.87;;;;;;;-145.18;100.00;60484.78;5091162;28;20075;-69
2021/07/19 03:44:46;;;;;;;12.50;3.90;;;;;;;-145.18;100.00;60484.78;5086534;28;20028;-68
2021/07/19 03:47:13;;;;;;;10.07;4.40;;;;;;;-145.18;100.00;60484.78;5086513;28;20036;-69
2021/07/19 03:49:40;;;;;;;12.13;4.17;;;;;;;-145.18;100.00;60484.78;5086328;28;20105;-69
2021/07/19 03:52:06;;;;;;;14.93;4.50;;;;;;;-145.18;100.00;60484.78;5089396;28;20030;-69
2021/07/19 03:54:33;;;;;;;13.33;3.83;;;;;;;-145.18;100.00;60484.78;5086522;28;20024;-69
2021/07/19 03:57:00;;;;;;;12.33;3.80;;;;;;;-145.18;100.00;60484.78;5085365;28;20035;-69
2021/07/19 03:59:27;;;;;;;12.73;4.13;;;;;;;-145.18;100.00;60484.78;5086319;28;20016;-69
2021/07/19 04:01:54;;;;;;;14.83;4.03;;;;;;;-145.18;100.00;60484.78;5087225;28;20066;-71
2021/07/19 04:04:30;;;;;;;13.47;3.50;;;;;;;-145.18;100.00;60484.78;5074848;28;20040;-69
2021/07/19 04:06:59;;;;;;;12.47;3.73;;;;;;;-145.18;100.00;60484.78;5086537;28;20061;-69
2021/07/19 04:09:26;;;;;;;13.77;4.00;;;;;;;-145.18;100.00;60484.78;5086270;28;20081;-69
2021/07/19 04:11:53;;;;;;;14.30;4.27;;;;;;;-145.18;100.00;60484.78;5086031;28;20503;-69
2021/07/19 04:14:22;;;;;;;14.07;4.57;;;;;;;-145.18;100.00;60484.78;5085361;28;20070;-69
2021/07/19 04:16:49;;;;;;;11.30;3.70;;;;;;;-145.18;100.00;60484.78;5086928;28;20035;-68
2021/07/19 04:19:15;;;;;;;10.50;3.43;;;;;;;-145.18;100.00;60484.78;5084764;28;20028;-70
2021/07/19 04:21:40;;;;;;;8.67;3.60;;;;;;;-145.18;100.00;60484.78;5087854;28;20380;-68
2021/07/19 04:24:11;;;;;;;8.60;3.50;;;;;;;-145.18;100.00;60484.78;5087982;28;20048;-68
2021/07/19 04:26:37;;;;;;;12.53;3.40;;;;;;;-145.18;100.00;60484.78;5084736;28;20113;-68
2021/07/19 04:29:04;;;;;;;11.27;3.43;;;;;;;-145.18;100.00;60484.78;5085952;28;20024;-68
2021/07/19 04:31:31;;;;;;;11.00;3.93;;;;;;;-145.18;100.00;60484.78;5085670;28;20107;-68
2021/07/19 04:33:57;;;;;;;8.07;3.17;;;;;;;-145.18;100.00;60484.78;5090674;28;20028;-68
2021/07/19 04:36:22;;;;;;;12.70;3.27;;;;;;;-145.18;100.00;60484.78;5085201;28;20089;-68
2021/07/19 04:38:48;;;;;;;11.53;3.90;;;;;;;-145.18;100.00;60484.78;5090380;28;20031;-68
2021/07/19 04:41:19;;;;;;;11.87;3.27;;;;;;;-145.18;100.00;60484.78;5084352;28;20054;-69
2021/07/19 04:43:46;;;;;;;8.43;3.70;;;;;;;-145.18;100.00;60484.78;5086250;28;20028;-68
2021/07/19 04:46:11;;;;;;;10.83;3.70;;;;;;;-145.18;100.00;60484.78;5085326;28;20020;-68
2021/07/19 04:48:37;;;;;;;13.77;3.67;;;;;;;-145.18;100.00;60484.78;5088557;28;20102;-69
2021/07/19 04:51:03;;;;;;;7.33;3.00;;;;;;;-145.18;100.00;60484.78;5084889;28;20035;-68
2021/07/19 04:53:29;;;;;;;10.07;3.40;;;;;;;-145.18;100.00;60484.78;5087572;28;20093;-68
2021/07/19 04:55:58;;;;;;;9.00;3.40;;;;;;;-145.18;100.00;60484.78;5084701;28;20047;-68
2021/07/19 04:58:26;;;;;;;9.27;3.67;;;;;;;-145.18;100.00;60484.78;5086750;28;20032;-68
2021/07/19 05:01:02;;;;;;;12.30;3.80;;;;;;;-145.18;100.00;60484.78;5085063;28;20122;-69
2021/07/19 05:03:29;;;;;;;11.97;3.30;;;;;;;-145.18;100.00;60484.78;5085262;28;20032;-68
2021/07/19 05:05:57;;;;;;;10.13;3.27;;;;;;;-145.18;100.00;60484.78;5084577;28;20032;-68
2021/07/19 05:08:25;;;;;;;8.57;3.33;;;;;;;-145.18;100.00;60484.78;5091175;28;20110;-68
2021/07/19 05:10:52;;;;;;;10.70;3.30;;;;;;;-145.18;100.00;60484.78;5084754;28;20040;-68
2021/07/19 05:13:20;;;;;;;8.30;3.17;;;;;;;-145.18;100.00;60484.78;5095985;28;20682;-68
2021/07/19 05:15:46;;;;;;;8.67;3.30;;;;;;;-145.18;100.00;60484.78;5084366;28;20039;-68
2021/07/19 05:18:15;;;;;;;9.53;3.50;;;;;;;-145.18;100.00;60484.78;5094863;28;20028;-68
2021/07/19 05:20:42;;;;;;;10.17;3.27;;;;;;;-145.18;100.00;60484.78;5084823;28;20024;-68
2021/07/19 05:23:07;;;;;;;9.13;3.08;;;;;;;-145.18;100.00;60484.78;5096747;28;20137;-68
2021/07/19 05:25:34;;;;;;;10.18;2.83;;;;;;;-145.18;100.00;60484.78;5078083;28;20485;-68
2021/07/19 05:28:11;;;;;;;8.23;2.80;;;;;;;-145.18;100.00;60484.78;5090435;28;20043;-68
2021/07/19 05:30:46;;;;;;;9.77;3.00;;;;;;;-145.18;100.00;60484.78;5084626;28;20121;-68
2021/07/19 05:33:12;;;;;;;6.95;2.75;;;;;;;-145.18;100.00;60484.78;5094328;28;20088;-68
2021/07/19 05:35:38;;;;;;;9.40;2.72;;;;;;;-145.18;100.00;60484.78;5084021;28;20024;-68
2021/07/19 05:38:04;;;;;;;6.70;2.72;;;;;;;-145.18;100.00;60484.78;5092891;28;20035;-68
2021/07/19 05:40:31;;;;;;;7.22;2.42;;;;;;;-145.18;100.00;60484.78;5084218;28;20052;-69
2021/07/19 05:42:58;;;;;;;6.95;2.03;;;;;;;-145.18;100.00;60484.78;5091542;28;20051;-69
2021/07/19 05:45:23;;;;;;;7.65;2.53;;;;;;;-145.18;100.00;60484.78;5084473;28;20103;-69
2021/07/19 05:47:49;;;;;;;7.20;2.45;;;;;;;-145.18;100.00;60484.78;5089777;28;20107;-69
2021/07/19 05:50:15;;;;;;;6.43;2.10;;;;;;;-145.18;100.00;60484.78;5084188;28;20118;-69
2021/07/19 05:52:40;;;;;;;8.07;2.38;;;;;;;-145.18;100.00;60484.78;5089127;28;20031;-69
2021/07/19 05:55:07;;;;;;;5.97;2.05;;;;;;;-145.18;100.00;60484.78;5083916;28;20032;-69
2021/07/19 05:57:33;;;;;;;7.47;2.08;;;;;;;-145.18;100.00;60484.78;5087591;28;20175;-69
2021/07/19 05:59:59;;;;;;;6.68;2.13;;;;;;;-145.18;100.00;60484.78;5084065;28;20032;-69
2021/07/19 06:02:27;;;;;;;5.20;2.08;;;;;;;-145.18;100.00;60484.78;5085081;28;20043;-69
2021/07/19 06:04:54;;;;;;;9.23;1.95;;;;;;;-145.18;100.00;60484.78;5086739;28;20047;-69
2021/07/19 06:07:20;;;;;;;4.85;1.83;;;;;;;-145.18;100.00;60484.78;5085688;28;20506;-69
2021/07/19 06:09:46;;;;;;;9.32;2.10;;;;;;;-145.18;100.00;60484.78;5083650;28;20052;-69
2021/07/19 06:12:13;;;;;;;8.32;2.55;;;;;;;-145.18;100.00;60484.78;5084046;28;20438;-69
2021/07/19 06:14:39;;;;;;;12.73;2.20;;;;;;;-145.18;100.00;60484.78;5083556;28;20059;-70
2021/07/19 06:17:07;;;;;;;7.88;2.20;;;;;;;-145.18;100.00;60484.78;5096831;28;20318;-69
2021/07/19 06:19:36;;;;;;;5.75;2.10;;;;;;;-145.18;100.00;60484.78;5090231;28;20028;-70
2021/07/19 06:22:03;;;;;;;7.75;2.10;;;;;;;-145.18;100.00;60484.78;5088839;28;20091;-70
2021/07/19 06:24:32;;;;;;;4.43;1.80;;;;;;;-145.18;100.00;60484.78;5089846;28;20412;-70
2021/07/19 06:26:57;;;;;;;5.95;1.90;;;;;;;-145.18;100.00;60484.78;5077119;28;20408;-70
2021/07/19 06:29:22;;;;;;;8.57;2.05;;;;;;;-145.18;100.00;60484.78;5088992;28;20024;-70
2021/07/19 06:31:48;;;;;;;11.35;2.42;;;;;;;-145.18;100.00;60484.78;5086779;28;20688;-70
2021/07/19 06:34:15;;;;;;;6.38;1.90;;;;;;;-145.18;100.00;60484.78;5085926;28;20094;-70
2021/07/19 06:36:40;;;;;;;4.60;1.90;;;;;;;-145.18;100.00;60484.78;5085086;28;20028;-70
2021/07/19 06:39:08;;;;;;;6.65;2.08;;;;;;;-145.18;100.00;60484.78;5088575;28;20032;-70
2021/07/19 06:41:36;;;;;;;7.50;1.67;;;;;;;-145.18;100.00;60484.78;5083904;28;20108;-70
2021/07/19 06:44:02;;;;;;;8.25;2.20;;;;;;;-145.18;100.00;60484.78;5087988;28;20103;-70
2021/07/19 06:46:28;;;;;;;6.28;1.85;;;;;;;-145.18;100.00;60484.78;5083269;28;20111;-70
2021/07/19 06:48:53;;;;;;;4.80;1.80;;;;;;;-145.18;100.00;60484.78;5087759;28;20032;-70
2021/07/19 06:51:19;;;;;;;4.53;1.85;;;;;;;-145.18;100.00;60484.78;5082940;28;20024;-70
2021/07/19 06:53:44;;;;;;;8.38;1.83;;;;;;;-145.18;100.00;60484.78;5087077;28;20043;-70
2021/07/19 06:56:10;;;;;;;7.53;1.63;;;;;;;-145.18;100.00;60484.78;5082905;28;20032;-70
2021/07/19 06:58:35;;;;;;;7.40;1.92;;;;;;;-145.18;100.00;60484.78;5085662;28;20131;-70
2021/07/19 07:01:01;;;;;;;4.25;1.77;;;;;;;-145.18;100.00;60484.78;5083000;28;20073;-70
2021/07/19 07:03:27;;;;;;;6.72;1.70;;;;;;;-145.18;100.00;60484.78;5084582;28;20138;-70
2021/07/19 07:05:52;;;;;;;5.28;1.65;;;;;;;-145.18;100.00;60484.78;5082790;28;20051;-71
2021/07/19 07:08:17;;;;;;;5.50;1.83;;;;;;;-145.18;100.00;60484.78;5083252;28;20516;-71
2021/07/19 07:10:43;;;;;;;4.32;1.35;;;;;;;-145.18;100.00;60484.78;5082604;28;20085;-69
2021/07/19 07:13:09;;;;;;;4.80;1.42;;;;;;;-145.18;100.00;60484.78;5095816;28;20625;-68
2021/07/19 07:15:40;;;;;;;5.57;1.52;;;;;;;-145.18;100.00;60484.78;5082714;28;20411;-68
2021/07/19 07:18:07;;;;;;;4.50;1.50;;;;;;;-145.18;100.00;60484.78;5095217;28;20034;-68
2021/07/19 07:20:32;;;;;;;6.13;1.40;;;;;;;-145.18;100.00;60484.78;5082147;28;20032;-68
2021/07/19 07:22:58;;;;;;;12.85;1.67;;;;;;;-145.18;100.00;60484.78;5085142;28;20522;-68
2021/07/19 07:25:24;;;;;;;2.97;1.20;;;;;;;-145.18;100.00;60484.78;5080251;28;20031;-68
2021/07/19 07:27:49;;;;;;;4.00;1.35;;;;;;;-145.18;100.00;60484.78;5084518;28;20024;-68
2021/07/19 07:30:16;;;;;;;4.22;1.38;;;;;;;-145.18;100.00;60484.78;5082048;28;20032;-69
2021/07/19 07:32:41;;;;;;;5.95;1.40;;;;;;;-145.18;100.00;60484.78;5083198;28;20024;-71
2021/07/19 07:35:08;;;;;;;5.22;1.70;;;;;;;-145.18;100.00;60484.78;5082305;28;20472;-69
2021/07/19 07:37:37;;;;;;;4.82;1.98;;;;;;;-145.18;100.00;60484.78;5091889;28;20723;-69
2021/07/19 07:40:05;;;;;;;3.88;1.23;;;;;;;-145.18;100.00;60484.78;5085713;28;20020;-69
2021/07/19 07:42:31;;;;;;;4.43;1.50;;;;;;;-145.18;100.00;60484.78;5091353;28;20085;-68
2021/07/19 07:44:58;;;;;;;3.45;1.25;;;;;;;-145.18;100.00;60484.78;5084993;28;20024;-69
2021/07/19 07:47:24;;;;;;;5.15;1.90;;;;;;;-145.18;100.00;60484.78;5090359;28;20030;-69
2021/07/19 07:49:50;;;;;;;4.00;1.45;;;;;;;-145.18;100.00;60484.78;5084817;28;20020;-69
2021/07/19 07:52:16;;;;;;;6.70;1.70;;;;;;;-145.18;100.00;60484.78;5089491;28;20027;-69
2021/07/19 07:54:42;;;;;;;4.35;1.83;;;;;;;-145.18;100.00;60484.78;5085274;28;20047;-69
2021/07/19 07:57:07;;;;;;;5.93;1.80;;;;;;;-145.18;100.00;60484.78;5088050;28;20382;-69
2021/07/19 07:59:33;;;;;;;11.70;2.03;;;;;;;-145.18;100.00;60484.78;5085634;28;20055;-69
2021/07/19 08:01:59;;;;;;;5.03;1.80;;;;;;;-145.18;100.00;60484.78;5086124;28;20047;-69
2021/07/19 08:04:25;;;;;;;5.72;1.75;;;;;;;-145.18;100.00;60484.78;5086449;28;20031;-70
2021/07/19 08:06:50;;;;;;;4.93;1.70;;;;;;;-145.18;100.00;60484.78;5085478;28;20023;-69
2021/07/19 08:09:16;;;;;;;5.25;1.73;;;;;;;-145.18;100.00;60484.78;5086216;28;20643;-69
2021/07/19 08:11:42;;;;;;;5.78;2.15;;;;;;;-145.18;100.00;60484.78;5084387;28;20186;-69
2021/07/19 08:14:08;;;;;;;8.48;1.80;;;;;;;-145.18;100.00;60484.78;5086594;28;20068;-68
2021/07/19 08:16:36;;;;;;;4.70;1.70;;;;;;;-145.18;100.00;60484.78;5082889;28;20058;-68
2021/07/19 08:19:04;;;;;;;5.00;1.80;;;;;;;-145.18;100.00;60484.78;5086092;28;20051;-69
2021/07/19 08:21:29;;;;;;;4.65;1.33;;;;;;;-145.18;100.00;60484.78;5082435;28;20651;-69
2021/07/19 08:23:55;;;;;;;3.90;1.35;;;;;;;-145.18;100.00;60484.78;5083790;28;20024;-69
2021/07/19 08:26:20;;;;;;;3.50;1.17;;;;;;;-145.18;100.00;60484.78;5083698;28;20020;-69
2021/07/19 08:28:46;;;;;;;3.35;1.20;;;;;;;-145.18;100.00;60484.78;5086628;28;20036;-69
2021/07/19 08:31:11;;;;;;;6.63;1.88;;;;;;;-145.18;100.00;60484.78;5084030;28;20032;-67
2021/07/19 08:33:37;;;;;;;6.75;1.20;;;;;;;-145.18;100.00;60484.78;5084135;28;20035;-67
2021/07/19 08:36:03;;;;;;;4.20;1.55;;;;;;;-145.18;100.00;60484.78;5085714;28;20059;-67
2021/07/19 08:38:28;;;;;;;3.50;1.40;;;;;;;-145.18;100.00;60484.78;5098466;28;20424;-67
2021/07/19 08:40:54;;;;;;;2.53;1.05;;;;;;;-145.18;100.00;60484.78;5085923;28;20028;-67
2021/07/19 08:43:22;;;;;;;3.75;1.02;;;;;;;-145.18;100.00;60484.78;5097111;28;20024;-68
2021/07/19 08:45:47;;;;;;;4.07;1.38;;;;;;;-145.18;100.00;60484.78;5085920;28;20022;-67
2021/07/19 08:48:13;;;;;;;5.85;1.58;;;;;;;-145.18;100.00;60484.78;5093033;28;20032;-67
2021/07/19 08:50:38;;;;;;;5.43;1.52;;;;;;;-145.18;100.00;60484.78;5085077;28;20392;-67
2021/07/19 08:53:04;;;;;;;9.60;1.90;;;;;;;-145.18;100.00;60484.78;5094021;28;20028;-67
2021/07/19 08:55:33;;;;;;;3.45;1.30;;;;;;;-145.18;100.00;60484.78;5085140;28;20559;-69
2021/07/19 08:58:01;;;;;;;6.53;1.30;;;;;;;-145.18;100.00;60484.78;5093522;28;20036;-67
2021/07/19 09:00:26;;;;;;;5.10;1.42;;;;;;;-145.18;100.00;60484.78;5085157;28;20358;-68
2021/07/19 09:02:52;;;;;;;4.93;1.50;;;;;;;-145.18;100.00;60484.78;5092054;28;20024;-67
2021/07/19 09:05:17;;;;;;;5.13;1.23;;;;;;;-145.18;100.00;60484.78;5084678;28;20102;-68
2021/07/19 09:07:43;;;;;;;4.90;1.63;;;;;;;-145.18;100.00;60484.78;5091182;28;20630;-68
2021/07/19 09:10:10;;;;;;;3.33;1.10;;;;;;;-145.18;100.00;60484.78;5084837;28;20146;-67
2021/07/19 09:12:45;;;;;;;3.28;1.33;;;;;;;-145.18;100.00;60484.78;5090089;28;20052;-67
2021/07/19 09:15:14;;;;;;;6.60;1.80;;;;;;;-145.18;100.00;60484.78;5084844;28;20069;-68
2021/07/19 09:17:40;;;;;;;3.17;1.13;;;;;;;-145.18;100.00;60484.78;5088714;28;20035;-67
2021/07/19 09:20:09;;;;;;;4.32;1.20;;;;;;;-145.18;100.00;60484.78;5084998;28;20035;-67
2021/07/19 09:22:35;;;;;;;4.47;1.23;;;;;;;-145.18;100.00;60484.78;5087659;28;20040;-68
2021/07/19 09:25:10;;;;;;;5.55;1.50;;;;;;;-145.18;100.00;60484.78;5083133;28;20027;-67
2021/07/19 09:27:39;;;;;;;6.07;1.63;;;;;;;-145.18;100.00;60484.78;5086220;28;20035;-68
2021/07/19 09:30:17;;;;;;;3.60;1.00;;;;;;;-145.18;100.00;60484.78;5084550;28;20032;-68
2021/07/19 09:32:53;;;;;;;6.53;1.30;;;;;;;-145.18;100.00;60484.78;5085121;28;20046;-68
2021/07/19 09:35:19;;;;;;;3.33;1.20;;;;;;;-145.18;100.00;60484.78;5084225;28;20028;-68
2021/07/19 09:37:44;;;;;;;4.05;1.42;;;;;;;-145.18;100.00;60484.78;5094053;28;20044;-68
2021/07/19 09:40:11;;;;;;;2.92;1.33;;;;;;;-145.18;100.00;60484.78;5085495;28;20023;-68
2021/07/19 09:42:42;;;;;;;3.88;1.45;;;;;;;-145.18;100.00;60484.78;5093868;28;20467;-68
2021/07/19 09:45:08;;;;;;;;;;;;;;;-145.18;100.00;60484.78;5085197;28;20081;-68
2021/07/19 09:47:36;;;;;;;6.10;1.58;;;;;;;-145.18;100.00;60484.78;5093582;28;20006;-68
2021/07/19 09:50:13;;;;;;;8.85;1.83;;;;;;;-145.18;100.00;60484.78;5084525;28;20024;-68
2021/07/19 09:52:40;;;;;;;4.03;1.60;;;;;;;-145.18;100.00;60484.78;5093572;28;20047;-68
2021/07/19 09:55:11;;;;;;;4.45;1.40;;;;;;;-145.18;100.00;60484.78;5083718;28;20036;-68
2021/07/19 09:57:37;;;;;;;4.70;1.80;;;;;;;-145.18;100.00;60484.78;5092215;28;20031;-68
2021/07/19 10:00:04;;;;;;;6.13;1.45;;;;;;;-145.18;100.00;60484.78;5083891;28;20034;-68
2021/07/19 10:02:43;;;;;;;7.00;1.77;;;;;;;-145.18;100.00;60484.78;5090884;28;20031;-68
2021/07/19 10:05:10;;;;;;;5.85;1.65;;;;;;;-145.18;100.00;60484.78;5087571;28;20066;-68
2021/07/19 10:07:44;;;;;;;4.88;1.73;;;;;;;-145.18;100.00;60484.78;5092489;28;20035;-68
2021/07/19 10:10:11;;;;;;;5.00;1.65;;;;;;;-145.18;100.00;60484.78;5083652;28;20388;-68
2021/07/19 10:12:37;;;;;;;6.13;1.52;;;;;;;-145.18;100.00;60484.78;5088650;28;20070;-68
2021/07/19 10:15:05;;;;;;;6.85;1.65;;;;;;;-145.18;100.00;60484.78;5083043;28;20052;-68
2021/07/19 10:17:31;;;;;;;3.95;1.80;;;;;;;-145.18;100.00;60484.78;5092079;28;20060;-68
2021/07/19 10:19:57;;;;;;;6.28;1.85;;;;;;;-145.18;100.00;60484.78;5083680;28;20074;-68
2021/07/19 10:22:23;;;;;;;4.72;1.70;;;;;;;-145.18;100.00;60484.78;5085698;28;20052;-68
2021/07/19 10:24:53;;;;;;;6.45;1.80;;;;;;;-145.18;100.00;60484.78;5083088;28;20596;-68
2021/07/19 10:27:21;;;;;;;7.50;2.10;;;;;;;-145.18;100.00;60484.78;5084097;28;20119;-68
2021/07/19 10:29:48;;;;;;;5.63;1.67;;;;;;;-145.18;100.00;60484.78;5083311;28;20103;-68
2021/07/19 10:32:20;;;;;;;4.50;1.80;;;;;;;-145.18;100.00;60484.78;5089924;28;20685;-68
2021/07/19 10:34:55;;;;;;;3.85;1.50;;;;;;;-145.18;100.00;60484.78;5088954;28;20028;-68
2021/07/19 10:37:26;;;;;;;3.75;1.70;;;;;;;-145.18;100.00;60484.78;5090420;28;20027;-68
2021/07/19 10:39:56;;;;;;;4.47;1.80;;;;;;;-145.18;100.00;60484.78;5087446;28;20024;-68
2021/07/19 10:42:37;;;;;;;8.95;1.98;;;;;;;-145.18;100.00;60484.78;5083065;28;20028;-68
2021/07/19 10:45:14;;;;;;;7.72;1.88;;;;;;;-145.18;100.00;60484.78;5083135;28;20031;-68
2021/07/19 10:47:53;;;;;;;6.65;1.85;;;;;;;-145.18;100.00;60484.78;5092473;28;20032;-68
2021/07/19 10:50:22;;;;;;;7.78;1.70;;;;;;;-145.18;100.00;60484.78;5071450;28;20660;-68
2021/07/19 10:52:48;;;;;;;6.75;2.03;;;;;;;-145.18;100.00;60484.78;5092240;28;20504;-68
2021/07/19 10:55:42;;;;;;;4.20;1.90;;;;;;;-145.18;100.00;60484.78;5082803;28;20050;-68
2021/07/19 10:58:15;;;;;;;6.30;1.83;;;;;;;-145.18;100.00;60484.78;5090930;28;20056;-68
2021/07/19 11:00:45;;;;;;;8.30;2.10;;;;;;;-145.18;100.00;60484.78;5082944;28;20570;-68
2021/07/19 11:03:14;;;;;;;4.70;1.70;;;;;;;-145.18;100.00;60484.78;5090205;28;20028;-68
2021/07/19 11:05:45;;;;;;;3.45;1.52;;;;;;;-145.18;100.00;60484.78;5082914;28;20504;-68
2021/07/19 11:08:24;;;;;;;5.53;1.67;;;;;;;-145.18;100.00;60484.78;5087084;28;20641;-68
2021/07/19 11:10:51;;;;;;;5.72;1.92;;;;;;;-145.18;100.00;60484.78;5074403;28;20043;-68